Time;durP1;ratioP1;P1;durP2;ratioP2;P2;SDS_P1;SDS_P2;PMS_P1;PMS_P2;Temp;Humidity;BMP_temperature;BMP_pressure;BME280_temperature;BME280_humidity;BME280_pressure;Samples;Min_cycle;Max_cycle;Signal;HPM_P1;HPM_P2
2021/12/11 00:02:13;;;;;;;10.07;6.57;;;9.30;99.30;;;;;;5050372;28;20084;-60
2021/12/11 00:04:40;;;;;;;12.18;7.40;;;9.50;99.90;;;;;;5050842;28;20394;-64
2021/12/11 00:07:09;;;;;;;11.15;7.10;;;9.20;99.20;;;;;;5051152;28;20131;-64
2021/12/11 00:09:44;;;;;;;10.18;6.95;;;9.60;99.90;;;;;;5051037;28;20144;-60
2021/12/11 00:12:13;;;;;;;11.05;6.63;;;;;;;;;;5033656;28;20041;-60
2021/12/11 00:14:40;;;;;;;10.85;6.60;;;9.30;99.90;;;;;;5034728;28;20091;-59
2021/12/11 00:17:06;;;;;;;11.50;7.30;;;9.20;99.90;;;;;;5034795;28;20126;-60
2021/12/11 00:19:33;;;;;;;12.50;8.23;;;;;;;;;;5050999;28;20053;-61
2021/12/11 00:22:06;;;;;;;10.70;7.28;;;9.30;98.30;;;;;;5050944;28;20127;-60
2021/12/11 00:24:33;;;;;;;11.40;7.07;;;9.30;99.90;;;;;;5033264;28;20049;-59
2021/12/11 00:27:05;;;;;;;12.05;7.50;;;9.40;99.90;;;;;;5051546;28;20528;-64
2021/12/11 00:29:31;;;;;;;12.13;7.90;;;9.20;99.90;;;;;;5051736;28;20064;-65
2021/12/11 00:32:10;;;;;;;12.82;8.18;;;9.20;98.80;;;;;;5050068;28;20037;-66
2021/12/11 00:34:37;;;;;;;12.18;7.65;;;9.20;99.90;;;;;;5039227;28;20044;-63
2021/12/11 00:37:05;;;;;;;12.82;7.95;;;9.30;99.90;;;;;;5051484;28;20993;-66
2021/12/11 00:39:31;;;;;;;11.32;7.38;;;9.20;99.90;;;;;;5053376;28;20045;-64
2021/12/11 00:42:00;;;;;;;12.35;7.80;;;9.10;99.80;;;;;;5052780;28;20463;-63
2021/12/11 00:44:36;;;;;;;11.63;7.88;;;9.00;99.80;;;;;;5052516;28;20100;-64
2021/12/11 00:47:31;;;;;;;11.02;7.32;;;8.90;98.60;;;;;;5052482;28;20516;-63
2021/12/11 00:50:06;;;;;;;11.95;7.97;;;9.40;98.10;;;;;;5053184;28;20049;-63
2021/12/11 00:52:36;;;;;;;13.50;7.95;;;9.20;99.70;;;;;;5052283;28;20487;-63
2021/12/11 00:55:07;;;;;;;13.90;8.38;;;9.00;98.50;;;;;;5053304;28;20041;-63
2021/12/11 00:57:33;;;;;;;12.40;7.93;;;;;;;;;;5052750;28;20080;-64
2021/12/11 01:00:03;;;;;;;13.05;7.78;;;9.20;98.50;;;;;;5052973;28;20406;-65
2021/12/11 01:02:29;;;;;;;11.65;7.90;;;9.20;99.60;;;;;;5050947;28;20045;-62
2021/12/11 01:04:55;;;;;;;13.82;8.48;;;9.20;99.60;;;;;;5052118;28;20122;-64
2021/12/11 01:07:22;;;;;;;12.77;7.60;;;8.80;99.50;;;;;;5053083;28;20041;-63
2021/12/11 01:10:00;;;;;;;12.63;8.07;;;9.10;98.30;;;;;;5052865;28;20228;-63
2021/12/11 01:12:51;;;;;;;12.40;7.75;;;9.00;99.50;;;;;;5052831;28;20407;-66
2021/12/11 01:15:24;;;;;;;12.20;8.02;;;9.00;98.40;;;;;;5052683;28;20063;-64
2021/12/11 01:20:46;;;;;;;12.38;8.20;;;9.20;99.50;;;;;;5052870;28;19924;-64
2021/12/11 01:23:29;;;;;;;12.35;8.15;;;;;;;;;;5052697;28;20474;-64
2021/12/11 01:25:55;;;;;;;12.45;8.20;;;9.00;99.30;;;;;;5050694;28;20045;-64
2021/12/11 01:28:20;;;;;;;11.95;7.78;;;9.10;99.40;;;;;;5052450;28;20116;-64
2021/12/11 01:30:47;;;;;;;11.63;7.78;;;;;;;;;;5052312;28;20045;-63
2021/12/11 01:33:13;;;;;;;11.75;8.15;;;9.10;99.30;;;;;;5052609;28;20071;-66
2021/12/11 01:35:40;;;;;;;11.38;7.55;;;;;;;;;;5052142;28;20041;-64
2021/12/11 01:38:11;;;;;;;13.50;8.50;;;9.10;98.30;;;;;;5050734;28;20502;-65
2021/12/11 01:40:38;;;;;;;11.23;7.53;;;;;;;;;;5051622;28;20055;-63
2021/12/11 01:43:04;;;;;;;12.13;8.43;;;9.10;99.30;;;;;;5055784;28;20048;-64
2021/12/11 01:45:30;;;;;;;12.45;8.18;;;;;;;;;;5055728;28;20053;-64
2021/12/11 01:47:57;;;;;;;13.20;7.88;;;;;;;;;;5055832;28;20040;-66
2021/12/11 01:50:32;;;;;;;12.60;8.35;;;9.10;97.40;;;;;;5055892;28;20059;-63
2021/12/11 01:53:00;;;;;;;12.20;8.43;;;;;;;;;;5054582;28;20041;-63
2021/12/11 01:55:26;;;;;;;13.13;8.75;;;;;;;;;;5055637;28;20049;-63
2021/12/11 01:57:53;;;;;;;11.10;7.65;;;9.00;97.80;;;;;;5055232;28;20116;-60
2021/12/11 02:00:36;;;;;;;12.63;8.13;;;9.10;99.10;;;;;;5055556;28;20052;-61
2021/12/11 02:03:05;;;;;;;12.38;8.43;;;8.90;97.90;;;;;;5055674;28;20040;-60
2021/12/11 02:05:32;;;;;;;12.52;8.32;;;9.00;99.00;;;;;;5054878;28;20037;-60
2021/12/11 02:08:03;;;;;;;12.52;8.05;;;8.70;98.90;;;;;;5055102;28;20494;-61
2021/12/11 02:10:36;;;;;;;13.50;8.38;;;9.00;97.80;;;;;;5036115;28;20107;-60
2021/12/11 02:13:05;;;;;;;13.27;8.00;;;9.00;99.00;;;;;;5051010;28;20049;-60
2021/12/11 02:15:35;;;;;;;13.35;8.70;;;9.00;98.90;;;;;;5055247;28;20077;-60
2021/12/11 02:18:12;;;;;;;12.40;7.80;;;8.90;98.90;;;;;;5055316;28;20372;-60
2021/12/11 02:21:01;;;;;;;12.82;8.25;;;8.90;98.90;;;;;;5055255;28;20450;-64
2021/12/11 02:23:27;;;;;;;14.63;9.20;;;9.00;98.90;;;;;;5055385;28;20084;-64
2021/12/11 02:25:53;;;;;;;13.93;9.02;;;;;;;;;;5054098;28;20500;-68
2021/12/11 02:28:36;;;;;;;12.60;8.20;;;8.90;97.70;;;;;;5054844;28;20128;-63
2021/12/11 02:31:26;;;;;;;13.55;8.52;;;9.20;97.80;;;;;;5051034;28;20077;-63
2021/12/11 02:34:07;;;;;;;14.82;9.07;;;8.80;98.70;;;;;;5037793;28;20092;-63
2021/12/11 02:36:46;;;;;;;14.05;9.27;;;9.00;97.60;;;;;;5054872;28;20049;-62
2021/12/11 02:39:36;;;;;;;13.18;9.20;;;8.60;98.60;;;;;;5054229;28;20041;-63
2021/12/11 02:42:16;;;;;;;14.68;9.05;;;9.10;98.80;;;;;;5055111;28;20410;-63
2021/12/11 02:44:58;;;;;;;14.38;9.23;;;8.80;98.70;;;;;;5054545;28;20061;-63
2021/12/11 02:47:26;;;;;;;15.70;9.60;;;9.00;97.50;;;;;;5054740;28;20053;-63
2021/12/11 02:49:54;;;;;;;15.90;9.50;;;8.80;97.20;;;;;;5054307;28;20037;-64
2021/12/11 02:52:24;;;;;;;15.75;9.63;;;9.20;96.90;;;;;;5053391;28;20037;-63
2021/12/11 02:55:01;;;;;;;15.95;10.02;;;9.00;97.60;;;;;;5054636;28;20059;-65
2021/12/11 02:58:09;;;;;;;16.42;10.13;;;8.80;97.10;;;;;;5054446;28;20513;-64
2021/12/11 03:00:41;;;;;;;16.00;9.68;;;8.80;97.40;;;;;;5049868;28;20122;-63
2021/12/11 03:03:08;;;;;;;16.73;10.07;;;9.00;97.10;;;;;;5033062;28;20522;-63
2021/12/11 03:05:45;;;;;;;15.98;9.48;;;8.70;97.30;;;;;;5042333;28;20487;-65
2021/12/11 03:08:14;;;;;;;13.57;9.15;;;9.10;97.40;;;;;;5034135;28;20041;-65
2021/12/11 03:10:40;;;;;;;14.63;9.15;;;;;;;;;;5050456;28;20061;-63
2021/12/11 03:13:07;;;;;;;15.80;9.40;;;;;;;;;;5050895;28;20380;-64
2021/12/11 03:15:33;;;;;;;16.15;9.93;;;8.80;98.50;;;;;;5050636;28;20048;-64
2021/12/11 03:17:59;;;;;;;14.63;9.20;;;8.90;98.50;;;;;;5051366;28;20045;-68
2021/12/11 03:20:25;;;;;;;15.63;9.68;;;8.80;98.40;;;;;;5049257;28;20068;-65
2021/12/11 03:22:51;;;;;;;14.55;9.18;;;;;;;;;;5040906;28;20053;-63
2021/12/11 03:25:23;;;;;;;13.95;8.90;;;8.70;97.10;;;;;;5048006;28;20084;-63
2021/12/11 03:27:48;;;;;;;12.43;8.60;;;8.90;98.60;;;;;;5052127;28;20073;-64
2021/12/11 03:30:22;;;;;;;14.38;9.30;;;8.70;98.40;;;;;;5052371;28;20087;-64
2021/12/11 03:32:52;;;;;;;15.95;8.88;;;8.90;97.10;;;;;;5025142;28;20049;-66
2021/12/11 03:35:18;;;;;;;15.63;9.25;;;9.00;98.30;;;;;;5040610;28;20518;-61
2021/12/11 03:37:44;;;;;;;14.52;8.75;;;;;;;;;;5049718;28;20045;-61
2021/12/11 03:40:10;;;;;;;14.35;8.85;;;8.90;98.30;;;;;;5053650;28;20051;-60
2021/12/11 03:42:37;;;;;;;13.60;8.68;;;8.90;96.70;;;;;;5052043;28;20475;-62
2021/12/11 03:45:05;;;;;;;13.27;8.30;;;8.90;98.30;;;;;;5054088;28;20056;-60
2021/12/11 03:47:32;;;;;;;13.50;8.57;;;9.00;98.30;;;;;;5056950;28;20115;-60
2021/12/11 03:49:58;;;;;;;13.02;8.77;;;8.80;98.20;;;;;;5073488;28;20043;-60
2021/12/11 03:52:25;;;;;;;14.52;9.13;;;8.40;98.10;;;;;;5073907;28;20461;-60
2021/12/11 03:54:51;;;;;;;12.85;8.35;;;9.00;96.70;;;;;;5055869;28;20139;-60
2021/12/11 03:57:21;;;;;;;13.00;8.65;;;8.80;98.20;;;;;;5073933;28;20043;-60
2021/12/11 03:59:48;;;;;;;13.52;8.85;;;;;;;;;;5073791;28;20044;-60
2021/12/11 04:02:14;;;;;;;11.73;8.23;;;8.80;98.20;;;;;;5073425;28;20048;-60
2021/12/11 04:04:46;;;;;;;13.18;7.88;;;8.50;98.10;;;;;;5073055;28;20044;-60
2021/12/11 04:07:14;;;;;;;12.30;7.85;;;8.80;98.20;;;;;;5055584;28;20052;-60
2021/12/11 04:09:40;;;;;;;11.45;7.63;;;;;;;;;;5055605;28;20048;-60
2021/12/11 04:12:08;;;;;;;12.63;7.90;;;8.90;98.30;;;;;;5073393;28;20040;-60
2021/12/11 04:14:35;;;;;;;13.45;8.75;;;8.80;98.20;;;;;;5073496;28;20040;-61
2021/12/11 04:17:02;;;;;;;12.52;7.78;;;;;;;;;;5052352;28;20127;-60
2021/12/11 04:19:27;;;;;;;13.68;8.73;;;8.80;98.00;;;;;;5062881;28;20115;-61
2021/12/11 04:21:53;;;;;;;11.90;8.10;;;8.80;98.00;;;;;;5071958;28;20124;-60
2021/12/11 04:24:20;;;;;;;12.55;8.10;;;8.90;96.60;;;;;;5074120;28;20478;-61
2021/12/11 04:26:47;;;;;;;11.15;7.40;;;9.20;98.00;;;;;;5071361;28;20045;-60
2021/12/11 04:29:13;;;;;;;12.75;8.45;;;8.80;96.90;;;;;;5073032;28;20032;-59
2021/12/11 04:31:42;;;;;;;11.80;8.02;;;8.80;98.00;;;;;;5073160;28;20032;-60
2021/12/11 04:34:09;;;;;;;12.13;8.10;;;;;;;;;;5072693;28;20055;-61
2021/12/11 04:36:37;;;;;;;11.50;8.32;;;8.80;97.90;;;;;;5072183;28;20087;-60
2021/12/11 04:39:05;;;;;;;11.77;8.13;;;8.50;96.60;;;;;;5073163;28;20513;-61
2021/12/11 04:41:37;;;;;;;13.38;8.10;;;8.90;96.70;;;;;;5072347;28;20041;-63
2021/12/11 04:44:07;;;;;;;11.82;7.78;;;8.70;96.80;;;;;;5072030;28;20110;-63
2021/12/11 04:46:33;;;;;;;13.75;8.40;;;;;;;;;;5054593;28;20048;-64
2021/12/11 04:49:09;;;;;;;12.20;7.90;;;8.70;97.80;;;;;;5071031;28;20040;-60
2021/12/11 04:51:46;;;;;;;11.98;7.93;;;8.70;96.90;;;;;;5072983;28;20514;-60
2021/12/11 05:07:26;;;;;;;11.95;7.43;;;8.70;97.80;;;;;;5010897;28;20053;-59
2021/12/11 05:10:13;;;;;;;12.52;8.05;;;8.80;96.80;;;;;;5010841;28;20058;-60
2021/12/11 05:12:39;;;;;;;12.77;7.50;;;8.80;97.80;;;;;;4998246;28;20042;-59
2021/12/11 05:15:15;;;;;;;12.55;8.00;;;8.90;97.90;;;;;;5010745;28;20073;-59
2021/12/11 05:17:41;;;;;;;12.25;8.43;;;8.60;97.70;;;;;;5014572;28;20049;-60
2021/12/11 05:20:08;;;;;;;11.68;7.45;;;8.80;97.80;;;;;;5013852;28;20103;-59
2021/12/11 05:22:33;;;;;;;12.70;7.93;;;8.70;97.80;;;;;;5014286;28;20054;-60
2021/12/11 05:24:59;;;;;;;12.65;8.00;;;8.80;97.80;;;;;;5014312;28;20085;-60
2021/12/11 05:27:25;;;;;;;13.20;8.00;;;8.70;97.80;;;;;;5014536;28;20065;-60
2021/12/11 05:29:51;;;;;;;12.75;8.30;;;;;;;;;;5013644;28;20054;-60
2021/12/11 05:32:21;;;;;;;13.18;8.38;;;8.80;97.80;;;;;;5008202;28;20412;-60
2021/12/11 05:34:47;;;;;;;15.07;8.68;;;;;;;;;;5014010;28;20128;-60
2021/12/11 05:37:13;;;;;;;13.80;8.65;;;9.00;97.90;;;;;;5014189;28;20121;-60
2021/12/11 05:39:39;;;;;;;12.43;8.63;;;;;;;;;;5014135;28;20208;-60
2021/12/11 05:42:05;;;;;;;12.90;8.00;;;8.60;97.80;;;;;;5051631;28;20052;-60
2021/12/11 05:44:31;;;;;;;13.55;8.43;;;;;;;;;;5075716;28;20054;-59
2021/12/11 05:46:57;;;;;;;14.05;8.30;;;8.80;97.80;;;;;;5076113;28;20102;-59
2021/12/11 05:49:25;;;;;;;13.30;8.80;;;;;;;;;;5075728;28;20044;-60
2021/12/11 05:51:51;;;;;;;13.50;8.85;;;8.80;97.80;;;;;;5075819;28;20044;-64
2021/12/11 05:54:22;;;;;;;13.73;8.50;;;8.80;96.60;;;;;;5075675;28;20040;-63
2021/12/11 05:56:49;;;;;;;12.57;8.43;;;8.70;96.70;;;;;;5075994;28;20032;-63
2021/12/11 05:59:16;;;;;;;12.98;8.73;;;8.90;96.60;;;;;;5075699;28;20052;-63
2021/12/11 06:01:58;;;;;;;13.30;8.85;;;8.90;97.80;;;;;;5075442;28;20103;-63
2021/12/11 06:04:27;;;;;;;13.32;9.00;;;8.70;96.50;;;;;;5053909;28;20044;-63
2021/12/11 06:06:53;;;;;;;14.63;9.18;;;8.70;97.70;;;;;;5075046;28;20040;-64
2021/12/11 06:09:21;;;;;;;15.40;9.85;;;8.60;97.70;;;;;;5075885;28;20044;-63
2021/12/11 06:11:48;;;;;;;15.27;9.77;;;8.80;97.70;;;;;;5075249;28;20083;-62
2021/12/11 06:14:16;;;;;;;14.27;9.18;;;;;;;;;;5075405;28;20064;-62
2021/12/11 06:16:44;;;;;;;14.93;8.82;;;8.60;97.70;;;;;;5074399;28;20048;-63
2021/12/11 06:19:10;;;;;;;14.23;9.30;;;;;;;;;;5075327;28;20044;-63
2021/12/11 06:21:36;;;;;;;15.82;9.07;;;8.90;96.90;;;;;;5075177;28;20547;-62
2021/12/11 06:24:02;;;;;;;14.85;8.82;;;8.70;98.00;;;;;;5073368;28;20123;-63
2021/12/11 06:26:29;;;;;;;14.77;8.93;;;;;;;;;;5075151;28;20134;-62
2021/12/11 06:28:55;;;;;;;15.07;9.10;;;9.00;98.20;;;;;;5075046;28;20052;-63
2021/12/11 06:31:20;;;;;;;15.15;9.15;;;9.00;98.20;;;;;;5056794;28;20394;-62
2021/12/11 06:33:47;;;;;;;15.73;10.07;;;8.90;98.10;;;;;;5074397;28;20127;-63
2021/12/11 06:36:14;;;;;;;13.70;9.25;;;9.00;98.10;;;;;;5057151;28;20040;-63
2021/12/11 06:38:41;;;;;;;14.07;9.45;;;8.90;98.10;;;;;;5075165;28;20118;-63
2021/12/11 06:41:08;;;;;;;14.93;9.02;;;8.80;98.10;;;;;;5057023;28;20080;-62
2021/12/11 06:43:34;;;;;;;15.05;10.05;;;;;;;;;;5040240;28;20123;-63
2021/12/11 06:46:00;;;;;;;16.27;8.98;;;8.90;98.00;;;;;;5073242;28;20049;-64
2021/12/11 06:48:25;;;;;;;14.55;9.50;;;9.00;98.00;;;;;;5056699;28;20506;-63
2021/12/11 06:50:52;;;;;;;13.85;8.95;;;;;;;;;;5055616;28;20513;-63
2021/12/11 06:53:24;;;;;;;15.15;9.63;;;9.00;98.00;;;;;;5056218;28;20044;-63
2021/12/11 06:55:50;;;;;;;16.25;10.27;;;;;;;;;;5052093;28;20098;-63
2021/12/11 06:58:17;;;;;;;17.50;9.73;;;;;;;;;;5041524;28;20442;-67
2021/12/11 07:00:43;;;;;;;15.02;9.88;;;;;;;;;;5035538;28;20057;-63
2021/12/11 07:03:08;;;;;;;15.57;10.10;;;9.00;97.90;;;;;;5048357;28;20083;-63
2021/12/11 07:05:37;;;;;;;15.13;9.10;;;;;;;;;;5058347;28;20084;-62
2021/12/11 07:08:06;;;;;;;15.95;9.85;;;8.90;98.00;;;;;;5073547;28;20052;-59
2021/12/11 07:10:32;;;;;;;17.92;9.73;;;;;;;;;;5072368;28;20101;-60
2021/12/11 07:12:58;;;;;;;15.90;9.93;;;8.90;98.00;;;;;;5062744;28;20048;-59
2021/12/11 07:15:24;;;;;;;17.02;10.15;;;;;;;;;;5074122;28;20383;-60
2021/12/11 07:17:50;;;;;;;15.05;9.60;;;;;;;;;;5072742;28;20052;-59
2021/12/11 07:20:17;;;;;;;15.10;10.07;;;;;;;;;;5074203;28;20040;-60
2021/12/11 07:22:43;;;;;;;17.77;10.18;;;8.90;98.00;;;;;;5056234;28;20070;-63
2021/12/11 07:25:11;;;;;;;16.73;10.27;;;8.90;98.00;;;;;;5073832;28;20044;-63
2021/12/11 07:27:38;;;;;;;15.68;10.50;;;;;;;;;;5073355;28;20056;-63
2021/12/11 07:30:04;;;;;;;17.40;10.90;;;8.90;97.90;;;;;;5073069;28;20040;-62
2021/12/11 07:32:30;;;;;;;15.88;9.52;;;;;;;;;;5074262;28;20056;-62
2021/12/11 07:34:56;;;;;;;16.17;10.35;;;8.90;98.00;;;;;;5073581;28;20071;-62
2021/12/11 07:37:23;;;;;;;16.00;10.02;;;;;;;;;;5073628;28;20044;-63
2021/12/11 07:39:49;;;;;;;16.08;10.02;;;;;;;;;;5072668;28;20048;-60
2021/12/11 07:42:15;;;;;;;18.02;10.90;;;;;;;;;;5073690;28;20044;-62
2021/12/11 07:44:41;;;;;;;17.75;10.35;;;8.90;97.90;;;;;;5055408;28;20091;-61
2021/12/11 07:47:06;;;;;;;17.23;10.63;;;8.90;97.90;;;;;;5073781;28;20079;-63
2021/12/11 07:49:32;;;;;;;15.25;10.23;;;9.00;97.90;;;;;;5055053;28;20147;-62
2021/12/11 07:51:58;;;;;;;18.63;11.60;;;9.00;96.90;;;;;;5073500;28;20036;-63
2021/12/11 07:54:24;;;;;;;17.17;10.73;;;9.00;97.90;;;;;;5073220;28;20055;-61
2021/12/11 07:56:50;;;;;;;18.83;10.55;;;8.90;97.90;;;;;;5073978;28;20071;-62
2021/12/11 07:59:15;;;;;;;16.73;10.85;;;8.90;97.90;;;;;;5072337;28;20051;-62
2021/12/11 08:01:44;;;;;;;17.15;10.57;;;9.00;97.80;;;;;;5072553;28;20047;-62
2021/12/11 08:04:10;;;;;;;18.30;11.60;;;9.00;97.90;;;;;;5072734;28;20406;-62
2021/12/11 08:06:36;;;;;;;16.48;10.15;;;9.00;97.80;;;;;;5073016;28;20041;-61
2021/12/11 08:09:03;;;;;;;16.80;10.50;;;;;;;;;;5072941;28;20048;-63
2021/12/11 08:11:29;;;;;;;15.93;10.30;;;;;;;;;;5072532;28;20052;-63
2021/12/11 08:13:56;;;;;;;17.95;10.63;;;9.20;97.80;;;;;;5071956;28;20127;-64
2021/12/11 08:16:26;;;;;;;17.75;10.93;;;9.00;96.50;;;;;;5073168;28;20102;-63
2021/12/11 08:18:53;;;;;;;15.98;10.40;;;;;;;;;;5072737;28;20124;-64
2021/12/11 08:21:20;;;;;;;17.38;10.65;;;;;;;;;;5072874;28;20045;-62
2021/12/11 08:23:48;;;;;;;16.92;10.95;;;8.90;97.70;;;;;;5072573;28;20040;-65
2021/12/11 08:26:16;;;;;;;17.05;10.55;;;9.10;97.70;;;;;;5072945;28;20394;-62
2021/12/11 08:28:42;;;;;;;17.52;10.98;;;8.90;97.60;;;;;;5071165;28;20052;-63
2021/12/11 08:31:07;;;;;;;20.38;11.13;;;9.10;97.00;;;;;;5072982;28;20040;-63
2021/12/11 08:33:33;;;;;;;18.58;10.98;;;9.00;97.70;;;;;;5054863;28;20044;-60
2021/12/11 08:36:00;;;;;;;19.88;11.50;;;;;;;;;;5072335;28;20076;-60
2021/12/11 08:38:26;;;;;;;16.77;10.07;;;8.90;97.70;;;;;;5071508;28;20045;-61
2021/12/11 08:40:53;;;;;;;19.80;11.77;;;9.00;96.40;;;;;;5065433;28;20456;-61
2021/12/11 08:43:20;;;;;;;19.77;11.93;;;8.80;97.50;;;;;;5070323;28;20053;-60
2021/12/11 08:45:59;;;;;;;18.55;10.70;;;9.30;97.70;;;;;;5068342;28;20109;-62
2021/12/11 08:48:26;;;;;;;23.80;11.77;;;;;;;;;;5054424;28;20141;-61
2021/12/11 08:51:01;;;;;;;17.98;11.48;;;9.00;97.50;;;;;;5067506;28;20040;-62
2021/12/11 08:53:27;;;;;;;19.77;11.75;;;;;;;;;;5073102;28;20059;-62
2021/12/11 08:55:54;;;;;;;21.58;11.02;;;9.10;97.60;;;;;;5076190;28;20032;-64
2021/12/11 08:58:20;;;;;;;18.60;11.43;;;9.00;97.50;;;;;;5073967;28;20048;-65
2021/12/11 09:00:46;;;;;;;19.48;11.55;;;;;;;;;;5071061;28;20052;-63
2021/12/11 09:03:51;;;;;;;20.05;11.75;;;9.30;96.00;;;;;;5072056;28;20393;-64
2021/12/11 09:06:38;;;;;;;19.10;11.57;;;;;;;;;;5069325;28;20402;-63
2021/12/11 09:09:09;;;;;;;18.30;11.23;;;9.10;97.50;;;;;;5072167;28;20123;-67
2021/12/11 09:11:41;;;;;;;18.13;10.93;;;9.40;96.40;;;;;;5073886;28;20494;-60
2021/12/11 09:14:34;;;;;;;16.50;10.63;;;9.20;96.50;;;;;;5074748;28;20052;-65
2021/12/11 09:17:03;;;;;;;17.98;10.38;;;;;;;;;;5075894;28;20050;-63
2021/12/11 09:20:09;;;;;;;19.33;11.07;;;9.20;96.80;;;;;;5074746;28;20044;-68
2021/12/11 09:22:40;;;;;;;17.08;10.27;;;9.00;95.90;;;;;;5012031;28;20061;-64
2021/12/11 09:25:16;;;;;;;18.27;11.63;;;9.20;97.70;;;;;;5013952;28;20084;-64
2021/12/11 09:27:58;;;;;;;18.30;11.00;;;9.30;97.60;;;;;;5013312;28;20113;-64
2021/12/11 09:30:44;;;;;;;21.48;11.63;;;9.30;96.60;;;;;;4994696;28;20470;-61
2021/12/11 09:33:17;;;;;;;18.20;10.07;;;;;;;;;;5013663;28;20068;-63
2021/12/11 09:35:44;;;;;;;20.80;10.98;;;9.30;97.60;;;;;;5013470;28;20123;-64
2021/12/11 09:38:15;;;;;;;19.55;11.07;;;;;;;;;;5013247;28;20121;-60
2021/12/11 09:40:40;;;;;;;21.52;11.63;;;9.20;97.50;;;;;;5013372;28;20077;-64
2021/12/11 09:43:06;;;;;;;19.60;10.73;;;9.30;97.50;;;;;;5013088;28;20161;-64
2021/12/11 09:45:43;;;;;;;20.67;11.50;;;9.10;97.50;;;;;;5009043;28;20054;-61
2021/12/11 09:48:14;;;;;;;20.45;11.25;;;9.20;97.50;;;;;;5013998;28;20045;-61
2021/12/11 09:50:50;;;;;;;20.17;11.57;;;9.60;97.60;;;;;;5026904;28;20049;-60
2021/12/11 09:53:18;;;;;;;21.48;10.57;;;9.60;96.30;;;;;;5032838;28;20057;-61
2021/12/11 09:55:45;;;;;;;19.08;10.65;;;9.30;97.40;;;;;;5031429;28;20049;-60
2021/12/11 09:58:17;;;;;;;20.75;10.82;;;9.40;96.20;;;;;;5012895;28;20415;-60
2021/12/11 10:00:47;;;;;;;31.75;12.20;;;9.50;97.50;;;;;;5053400;28;20486;-61
2021/12/11 10:03:14;;;;;;;35.45;12.35;;;9.50;97.50;;;;;;5074911;28;20040;-60
2021/12/11 10:05:44;;;;;;;44.60;14.00;;;;;;;;;;5046234;28;20053;-60
2021/12/11 10:08:31;;;;;;;35.97;12.30;;;9.50;95.80;;;;;;5046969;28;20116;-61
2021/12/11 10:11:15;;;;;;;31.65;11.75;;;;;;;;;;5053665;28;20068;-62
2021/12/11 10:14:05;;;;;;;35.10;13.07;;;9.70;96.50;;;;;;5041317;28;20076;-67
2021/12/11 10:16:33;;;;;;;34.10;11.82;;;;;;;;;;5047314;28;20064;-62
2021/12/11 10:18:59;;;;;;;40.28;12.23;;;;;;;;;;5052750;28;20120;-63
2021/12/11 10:21:33;;;;;;;32.42;11.48;;;9.60;95.80;;;;;;5052364;28;20052;-60
2021/12/11 10:24:00;;;;;;;27.08;10.82;;;9.60;96.20;;;;;;5051567;28;20052;-61
2021/12/11 10:26:26;;;;;;;25.45;11.63;;;9.70;97.50;;;;;;5053211;28;20053;-60
2021/12/11 10:28:54;;;;;;;22.48;11.27;;;;;;;;;;5052407;28;20048;-61
2021/12/11 10:31:25;;;;;;;26.77;10.70;;;9.80;97.50;;;;;;5070520;28;20079;-60
2021/12/11 10:33:51;;;;;;;25.17;11.23;;;9.80;97.50;;;;;;5074647;28;20091;-60
2021/12/11 10:36:21;;;;;;;30.17;11.40;;;9.90;97.50;;;;;;5071757;28;20123;-60
2021/12/11 10:38:48;;;;;;;22.73;10.82;;;9.80;97.40;;;;;;5053070;28;20400;-60
2021/12/11 10:41:14;;;;;;;23.55;10.63;;;9.90;97.50;;;;;;5055131;28;20051;-59
2021/12/11 10:43:53;;;;;;;22.55;11.23;;;10.00;96.50;;;;;;5056549;28;20065;-60
2021/12/11 10:46:20;;;;;;;20.75;11.27;;;9.80;97.60;;;;;;5075129;28;20052;-60
2021/12/11 10:48:46;;;;;;;19.35;9.98;;;10.00;97.50;;;;;;5072814;28;20074;-60
2021/12/11 10:51:18;;;;;;;22.00;10.38;;;10.00;97.60;;;;;;5074703;28;20135;-60
2021/12/11 10:53:46;;;;;;;20.92;10.90;;;10.00;97.60;;;;;;5073890;28;20052;-60
2021/12/11 10:56:13;;;;;;;23.08;10.65;;;9.80;97.50;;;;;;5072076;28;20048;-59
2021/12/11 10:58:45;;;;;;;19.30;10.35;;;10.10;97.50;;;;;;5058659;28;20036;-59
2021/12/11 11:01:17;;;;;;;22.80;11.00;;;10.10;97.50;;;;;;5074345;28;20044;-60
2021/12/11 11:03:47;;;;;;;19.63;10.48;;;10.10;97.40;;;;;;5072123;28;20076;-60
2021/12/11 11:06:13;;;;;;;14.48;9.88;;;10.10;97.50;;;;;;5074752;28;20050;-60
2021/12/11 11:08:39;;;;;;;21.92;10.45;;;10.20;97.50;;;;;;5073031;28;20119;-60
2021/12/11 11:11:08;;;;;;;22.10;9.77;;;10.20;97.60;;;;;;5074360;28;20036;-60
2021/12/11 11:13:34;;;;;;;16.02;9.10;;;10.20;97.50;;;;;;5072091;28;20044;-63
2021/12/11 11:16:00;;;;;;;16.63;9.93;;;;;;;;;;5055536;28;20097;-64
2021/12/11 11:18:27;;;;;;;18.83;10.45;;;;;;;;;;5074009;28;20102;-63
2021/12/11 11:20:58;;;;;;;20.20;10.27;;;10.20;96.40;;;;;;5053208;28;20043;-64
2021/12/11 11:23:25;;;;;;;15.32;9.93;;;10.30;97.40;;;;;;5072161;28;20044;-63
2021/12/11 11:25:52;;;;;;;16.70;9.85;;;10.40;97.30;;;;;;5056099;28;20036;-60
2021/12/11 11:28:21;;;;;;;19.17;10.80;;;10.50;96.20;;;;;;5072419;28;20056;-60
2021/12/11 11:30:58;;;;;;;18.30;11.55;;;10.20;96.20;;;;;;5068461;28;20102;-62
2021/12/11 11:33:25;;;;;;;24.42;11.43;;;;;;;;;;5072885;28;20041;-63
2021/12/11 11:35:51;;;;;;;20.08;11.35;;;10.80;97.20;;;;;;5067072;28;20072;-64
2021/12/11 11:38:21;;;;;;;20.65;10.98;;;10.60;95.90;;;;;;5072695;28;20043;-63
2021/12/11 11:40:49;;;;;;;22.60;11.65;;;10.60;96.10;;;;;;5070473;28;20131;-63
2021/12/11 11:43:15;;;;;;;20.23;11.15;;;10.80;97.30;;;;;;5073401;28;20446;-63
2021/12/11 11:45:40;;;;;;;18.65;10.88;;;10.50;97.20;;;;;;5069977;28;20087;-62
2021/12/11 11:48:07;;;;;;;24.63;10.45;;;;;;;;;;5070082;28;20032;-64
2021/12/11 11:50:36;;;;;;;22.27;10.98;;;11.00;97.30;;;;;;5071877;28;20048;-64
2021/12/11 11:53:03;;;;;;;19.83;10.45;;;11.00;97.30;;;;;;5069384;28;20106;-63
2021/12/11 11:55:30;;;;;;;22.33;11.43;;;;;;;;;;5071767;28;20518;-63
2021/12/11 11:57:57;;;;;;;19.35;10.18;;;;;;;;;;5071205;28;20386;-65
2021/12/11 12:00:39;;;;;;;20.15;11.38;;;;;;;;;;5072596;28;20051;-63
2021/12/11 12:03:05;;;;;;;23.53;10.53;;;;;;;;;;5069448;28;20447;-64
2021/12/11 12:05:35;;;;;;;18.10;11.02;;;11.20;96.20;;;;;;5073161;28;20304;-60
2021/12/11 12:08:03;;;;;;;19.33;11.07;;;11.10;97.30;;;;;;5072284;28;20045;-64
2021/12/11 12:10:29;;;;;;;18.42;10.68;;;;;;;;;;5055476;28;20059;-62
2021/12/11 12:12:55;;;;;;;20.45;10.57;;;10.90;97.20;;;;;;5071080;28;20050;-61
2021/12/11 12:15:27;;;;;;;18.02;10.80;;;10.90;96.10;;;;;;5055112;28;20465;-60
2021/12/11 12:17:53;;;;;;;19.85;10.65;;;11.10;97.20;;;;;;5072089;28;20111;-63
2021/12/11 12:20:19;;;;;;;16.48;9.80;;;11.30;97.30;;;;;;5072879;28;20542;-63
2021/12/11 12:22:45;;;;;;;16.90;10.40;;;11.40;97.30;;;;;;5072351;28;20041;-63
2021/12/11 12:25:11;;;;;;;16.63;10.45;;;;;;;;;;5071064;28;20095;-64
2021/12/11 12:27:38;;;;;;;20.75;10.60;;;10.90;97.20;;;;;;5072513;28;20048;-65
2021/12/11 12:30:07;;;;;;;18.67;10.60;;;11.10;97.30;;;;;;5072740;28;20052;-66
2021/12/11 12:32:36;;;;;;;23.70;10.80;;;10.60;97.20;;;;;;5071510;28;20072;-63
2021/12/11 12:35:04;;;;;;;18.98;10.98;;;10.90;97.20;;;;;;5071430;28;20371;-63
2021/12/11 12:37:30;;;;;;;16.55;10.60;;;11.10;96.30;;;;;;5055497;28;20043;-66
2021/12/11 12:39:57;;;;;;;16.33;10.23;;;10.90;97.20;;;;;;5070918;28;20393;-63
2021/12/11 12:42:32;;;;;;;18.52;10.73;;;10.90;96.30;;;;;;5070900;28;20044;-64
2021/12/11 12:45:29;;;;;;;19.17;10.27;;;11.00;96.30;;;;;;5069743;28;20053;-65
2021/12/11 12:48:03;;;;;;;16.90;10.15;;;10.90;97.40;;;;;;5060449;28;20052;-64
2021/12/11 12:50:53;;;;;;;18.05;10.70;;;;;;;;;;5055829;28;20041;-63
2021/12/11 12:53:20;;;;;;;19.63;10.52;;;10.80;97.40;;;;;;5061173;28;20072;-60
2021/12/11 12:55:54;;;;;;;21.33;10.60;;;10.70;96.30;;;;;;5072014;28;20107;-61
2021/12/11 12:58:34;;;;;;;19.77;10.88;;;10.60;96.20;;;;;;5053869;28;20566;-62
2021/12/11 13:01:03;;;;;;;18.52;10.32;;;10.20;96.90;;;;;;5072439;28;20041;-63
2021/12/11 13:03:31;;;;;;;24.92;10.52;;;;;;;;;;5072835;28;20128;-62
2021/12/11 13:06:31;;;;;;;22.67;10.80;;;10.70;96.40;;;;;;5072437;28;20128;-63
2021/12/11 13:09:00;;;;;;;35.78;11.32;;;10.70;96.10;;;;;;5023711;28;20045;-60
2021/12/11 13:11:35;;;;;;;29.65;11.63;;;10.60;96.40;;;;;;5030380;28;20168;-61
2021/12/11 13:14:01;;;;;;;27.40;11.00;;;10.70;97.80;;;;;;5030664;28;20462;-65
2021/12/11 13:16:30;;;;;;;35.58;12.38;;;10.50;96.40;;;;;;5029672;28;20072;-65
2021/12/11 13:18:59;;;;;;;24.55;10.88;;;10.60;97.80;;;;;;5028596;28;20042;-64
2021/12/11 13:21:43;;;;;;;26.10;10.98;;;10.40;96.10;;;;;;5029247;28;20042;-63
2021/12/11 13:24:10;;;;;;;25.60;11.35;;;10.60;97.90;;;;;;5028084;28;20120;-60
2021/12/11 13:26:37;;;;;;;22.73;11.27;;;10.40;97.90;;;;;;5029041;28;20387;-60
2021/12/11 13:29:05;;;;;;;27.30;11.10;;;10.60;96.80;;;;;;5023464;28;20470;-60
2021/12/11 13:31:49;;;;;;;26.35;11.25;;;10.40;96.20;;;;;;5029375;28;20041;-61